< < Back
Terminal Aerodrome Forecast


Current Version              Previous Versions:   1  2  3  4  5  6  7  8  9  

Terminal Aerodrome Forecast

346
FTUS44 KBMX 180500
TAFMGM
TAF
KMGM 180520Z 1806/1906 00000KT P6SM BKN250
     FM181500 35004KT P6SM OVC100
     FM190300 00000KT P6SM SCT100 BKN250=

Latest METAR

271
SAUS80 KWBC 181800 RRA
MTRMGM
METAR KMGM 181753Z 00000KT 10SM FEW100 13/M01 A3017 RMK AO2 SLP217
T01281006 10128 20022 58019


USA.gov is the U.S. government's official web portal to all federal, state and local government web resources and services.